KMMH

Mammoth Yosemite Airport

Mammoth Lakes, California, USA
METAR KMMH 201615Z AUTO 10007KT 10SM CLR 22/00 A3024 RMK AO2 T02150004
Observed Flight Rules
Aug-20 @ 16:15 UTC (10 minutes ago) Visual Flight Rules
Wind Visibility Clouds
100° at 7 knots 10 miles
  • Clear skies
Temperatures Readings
Current 22°C / 72°F
Dewpoint 0°C / 32°F
Humidity 23%
Altimeter 30.24" Hg
Pressure 1024 hPa
Elevation 2173
METAR KMMH 201615Z AUTO 10007KT 10SM CLR 22/00 A3024 RMK AO2 T02150004
Observed Flight Rules
Aug-20 @ 16:15 UTC
(10 minutes ago)
VFR
Wind Visibility
100° at 7 knots 10 miles
Clouds
  • Clear skies
Temperature Dewpoint
22°C / 72°F 0°C / 32°F
Humidity Altimeter Pressure
23% 30.24" Hg 1024 hPa